sensor_id;sensor_type;location;lat;lon;timestamp;temperature;humidity
7077;DHT22;3579;48.956;9.154;2024-03-02T00:00:22;16.70;61.00
7077;DHT22;3579;48.956;9.154;2024-03-02T00:02:49;16.70;60.40
7077;DHT22;3579;48.956;9.154;2024-03-02T00:05:20;16.70;60.40
7077;DHT22;3579;48.956;9.154;2024-03-02T00:07:52;16.70;60.40
7077;DHT22;3579;48.956;9.154;2024-03-02T00:10:21;16.70;60.40
7077;DHT22;3579;48.956;9.154;2024-03-02T00:12:50;16.70;60.40
7077;DHT22;3579;48.956;9.154;2024-03-02T00:18:02;16.60;60.30
7077;DHT22;3579;48.956;9.154;2024-03-02T00:20:29;16.60;60.40
7077;DHT22;3579;48.956;9.154;2024-03-02T00:23:04;16.60;60.30
7077;DHT22;3579;48.956;9.154;2024-03-02T00:25:39;16.60;60.30
7077;DHT22;3579;48.956;9.154;2024-03-02T00:28:20;16.60;60.30
7077;DHT22;3579;48.956;9.154;2024-03-02T00:33:21;16.60;60.30
7077;DHT22;3579;48.956;9.154;2024-03-02T00:35:48;16.60;60.20
7077;DHT22;3579;48.956;9.154;2024-03-02T00:38:15;16.60;60.60
7077;DHT22;3579;48.956;9.154;2024-03-02T00:40:44;16.60;60.20
7077;DHT22;3579;48.956;9.154;2024-03-02T00:45:55;16.60;60.30
7077;DHT22;3579;48.956;9.154;2024-03-02T00:48:21;16.60;60.30
7077;DHT22;3579;48.956;9.154;2024-03-02T00:50:53;16.60;60.40
7077;DHT22;3579;48.956;9.154;2024-03-02T00:53:23;16.60;60.40
7077;DHT22;3579;48.956;9.154;2024-03-02T00:55:50;16.60;60.40
7077;DHT22;3579;48.956;9.154;2024-03-02T00:58:16;16.60;60.50
7077;DHT22;3579;48.956;9.154;2024-03-02T01:00:42;16.60;60.40
7077;DHT22;3579;48.956;9.154;2024-03-02T01:03:08;16.60;60.40
7077;DHT22;3579;48.956;9.154;2024-03-02T01:05:36;16.60;60.50
7077;DHT22;3579;48.956;9.154;2024-03-02T01:08:02;16.60;60.40
7077;DHT22;3579;48.956;9.154;2024-03-02T01:10:28;16.60;60.40
7077;DHT22;3579;48.956;9.154;2024-03-02T01:12:54;16.60;60.40
7077;DHT22;3579;48.956;9.154;2024-03-02T01:15:20;16.60;60.40
7077;DHT22;3579;48.956;9.154;2024-03-02T01:17:46;16.60;60.40
7077;DHT22;3579;48.956;9.154;2024-03-02T01:20:12;16.60;60.40
7077;DHT22;3579;48.956;9.154;2024-03-02T01:22:38;16.60;60.40
7077;DHT22;3579;48.956;9.154;2024-03-02T01:25:05;16.60;60.50
7077;DHT22;3579;48.956;9.154;2024-03-02T01:27:31;16.60;60.40
7077;DHT22;3579;48.956;9.154;2024-03-02T01:29:57;16.60;60.50
7077;DHT22;3579;48.956;9.154;2024-03-02T01:32:25;16.60;60.50
7077;DHT22;3579;48.956;9.154;2024-03-02T01:34:51;18.30;62.20
7077;DHT22;3579;48.956;9.154;2024-03-02T01:37:17;16.50;60.30
7077;DHT22;3579;48.956;9.154;2024-03-02T01:39:43;16.50;60.30
7077;DHT22;3579;48.956;9.154;2024-03-02T01:42:09;16.50;60.30
7077;DHT22;3579;48.956;9.154;2024-03-02T01:44:36;16.50;60.30
7077;DHT22;3579;48.956;9.154;2024-03-02T01:47:02;16.50;60.30
7077;DHT22;3579;48.956;9.154;2024-03-02T01:49:28;16.50;60.30
7077;DHT22;3579;48.956;9.154;2024-03-02T01:51:54;16.50;61.00
7077;DHT22;3579;48.956;9.154;2024-03-02T01:54:20;16.50;60.30
7077;DHT22;3579;48.956;9.154;2024-03-02T01:56:46;16.50;61.00
7077;DHT22;3579;48.956;9.154;2024-03-02T01:59:12;16.50;60.40
7077;DHT22;3579;48.956;9.154;2024-03-02T02:01:39;16.50;60.40
7077;DHT22;3579;48.956;9.154;2024-03-02T02:04:05;16.50;60.40
7077;DHT22;3579;48.956;9.154;2024-03-02T02:06:32;16.50;60.40
7077;DHT22;3579;48.956;9.154;2024-03-02T02:08:58;16.50;60.40
7077;DHT22;3579;48.956;9.154;2024-03-02T02:11:25;16.50;60.40
7077;DHT22;3579;48.956;9.154;2024-03-02T02:13:51;16.50;60.30
7077;DHT22;3579;48.956;9.154;2024-03-02T02:16:17;16.50;60.40
7077;DHT22;3579;48.956;9.154;2024-03-02T02:18:43;16.50;60.30
7077;DHT22;3579;48.956;9.154;2024-03-02T02:21:09;16.50;60.30
7077;DHT22;3579;48.956;9.154;2024-03-02T02:23:35;16.50;60.40
7077;DHT22;3579;48.956;9.154;2024-03-02T02:26:01;16.50;60.40
7077;DHT22;3579;48.956;9.154;2024-03-02T02:28:28;16.50;60.40
7077;DHT22;3579;48.956;9.154;2024-03-02T02:30:54;16.50;60.40
7077;DHT22;3579;48.956;9.154;2024-03-02T02:33:22;17.00;60.90
7077;DHT22;3579;48.956;9.154;2024-03-02T02:35:48;16.50;60.40
7077;DHT22;3579;48.956;9.154;2024-03-02T02:38:14;16.50;60.40
7077;DHT22;3579;48.956;9.154;2024-03-02T02:40:40;16.50;60.40
7077;DHT22;3579;48.956;9.154;2024-03-02T02:43:06;16.50;60.40
7077;DHT22;3579;48.956;9.154;2024-03-02T02:45:32;16.50;60.50
7077;DHT22;3579;48.956;9.154;2024-03-02T02:47:58;16.40;60.30
7077;DHT22;3579;48.956;9.154;2024-03-02T02:50:25;16.40;60.30
7077;DHT22;3579;48.956;9.154;2024-03-02T02:52:51;16.40;60.30
7077;DHT22;3579;48.956;9.154;2024-03-02T02:55:17;16.40;60.30
7077;DHT22;3579;48.956;9.154;2024-03-02T02:57:43;16.40;60.20
7077;DHT22;3579;48.956;9.154;2024-03-02T03:00:14;16.40;60.20
7077;DHT22;3579;48.956;9.154;2024-03-02T03:02:45;16.40;60.30
7077;DHT22;3579;48.956;9.154;2024-03-02T03:05:13;16.40;60.30
7077;DHT22;3579;48.956;9.154;2024-03-02T03:07:40;16.40;60.30
7077;DHT22;3579;48.956;9.154;2024-03-02T03:10:07;16.40;60.30
7077;DHT22;3579;48.956;9.154;2024-03-02T03:12:36;16.40;60.30
7077;DHT22;3579;48.956;9.154;2024-03-02T03:15:03;16.40;60.30
7077;DHT22;3579;48.956;9.154;2024-03-02T03:17:30;16.40;60.30
7077;DHT22;3579;48.956;9.154;2024-03-02T03:19:56;16.40;60.30
7077;DHT22;3579;48.956;9.154;2024-03-02T03:22:22;16.40;60.30
7077;DHT22;3579;48.956;9.154;2024-03-02T03:24:48;16.40;60.30
7077;DHT22;3579;48.956;9.154;2024-03-02T03:27:14;16.40;60.30
7077;DHT22;3579;48.956;9.154;2024-03-02T03:29:40;16.40;60.30
7077;DHT22;3579;48.956;9.154;2024-03-02T03:32:06;16.40;60.30
7077;DHT22;3579;48.956;9.154;2024-03-02T03:34:33;16.40;60.30
7077;DHT22;3579;48.956;9.154;2024-03-02T03:36:59;16.40;60.30
7077;DHT22;3579;48.956;9.154;2024-03-02T03:39:25;16.40;60.40
7077;DHT22;3579;48.956;9.154;2024-03-02T03:41:51;16.40;60.30
7077;DHT22;3579;48.956;9.154;2024-03-02T03:44:17;16.40;60.30
7077;DHT22;3579;48.956;9.154;2024-03-02T03:46:43;16.40;60.30
7077;DHT22;3579;48.956;9.154;2024-03-02T03:49:09;16.40;60.40
7077;DHT22;3579;48.956;9.154;2024-03-02T03:51:35;16.40;60.30
7077;DHT22;3579;48.956;9.154;2024-03-02T03:54:01;16.40;60.30
7077;DHT22;3579;48.956;9.154;2024-03-02T03:56:27;16.40;60.30
7077;DHT22;3579;48.956;9.154;2024-03-02T03:58:53;16.40;60.30
7077;DHT22;3579;48.956;9.154;2024-03-02T04:01:19;16.40;60.30
7077;DHT22;3579;48.956;9.154;2024-03-02T04:03:48;16.40;60.30
7077;DHT22;3579;48.956;9.154;2024-03-02T04:06:14;16.40;60.20
7077;DHT22;3579;48.956;9.154;2024-03-02T04:08:42;16.40;60.20
7077;DHT22;3579;48.956;9.154;2024-03-02T04:11:09;16.30;60.20
7077;DHT22;3579;48.956;9.154;2024-03-02T04:13:35;16.30;60.20
7077;DHT22;3579;48.956;9.154;2024-03-02T04:16:01;16.30;60.20
7077;DHT22;3579;48.956;9.154;2024-03-02T04:18:27;16.30;60.20
7077;DHT22;3579;48.956;9.154;2024-03-02T04:20:52;16.30;60.30
7077;DHT22;3579;48.956;9.154;2024-03-02T04:23:18;16.30;60.30
7077;DHT22;3579;48.956;9.154;2024-03-02T04:25:44;16.30;60.20
7077;DHT22;3579;48.956;9.154;2024-03-02T04:28:11;16.30;60.20
7077;DHT22;3579;48.956;9.154;2024-03-02T04:30:38;16.40;60.30
7077;DHT22;3579;48.956;9.154;2024-03-02T04:33:04;16.40;60.30
7077;DHT22;3579;48.956;9.154;2024-03-02T04:35:33;16.40;60.90
7077;DHT22;3579;48.956;9.154;2024-03-02T04:37:59;16.40;60.20
7077;DHT22;3579;48.956;9.154;2024-03-02T04:40:25;16.40;60.20
7077;DHT22;3579;48.956;9.154;2024-03-02T04:42:51;16.40;60.20
7077;DHT22;3579;48.956;9.154;2024-03-02T04:45:17;16.40;60.20
7077;DHT22;3579;48.956;9.154;2024-03-02T04:47:43;16.40;60.20
7077;DHT22;3579;48.956;9.154;2024-03-02T04:50:09;16.40;60.20
7077;DHT22;3579;48.956;9.154;2024-03-02T04:52:36;16.30;60.20
7077;DHT22;3579;48.956;9.154;2024-03-02T04:55:03;16.40;60.30
7077;DHT22;3579;48.956;9.154;2024-03-02T04:57:35;16.30;60.20
7077;DHT22;3579;48.956;9.154;2024-03-02T05:00:02;16.30;60.20
7077;DHT22;3579;48.956;9.154;2024-03-02T05:02:32;16.30;60.10
7077;DHT22;3579;48.956;9.154;2024-03-02T05:04:58;16.30;60.20
7077;DHT22;3579;48.956;9.154;2024-03-02T05:07:24;16.30;60.20
7077;DHT22;3579;48.956;9.154;2024-03-02T05:09:50;16.30;60.10
7077;DHT22;3579;48.956;9.154;2024-03-02T05:12:16;16.30;60.20
7077;DHT22;3579;48.956;9.154;2024-03-02T05:15:15;16.30;60.10
7077;DHT22;3579;48.956;9.154;2024-03-02T05:17:42;16.30;60.10
7077;DHT22;3579;48.956;9.154;2024-03-02T05:20:11;16.30;60.10
7077;DHT22;3579;48.956;9.154;2024-03-02T05:22:38;16.30;60.10
7077;DHT22;3579;48.956;9.154;2024-03-02T05:25:04;16.20;60.00
7077;DHT22;3579;48.956;9.154;2024-03-02T05:27:31;16.20;60.00
7077;DHT22;3579;48.956;9.154;2024-03-02T05:29:59;16.20;60.00
7077;DHT22;3579;48.956;9.154;2024-03-02T05:32:25;16.20;60.10
7077;DHT22;3579;48.956;9.154;2024-03-02T05:34:51;16.20;60.10
7077;DHT22;3579;48.956;9.154;2024-03-02T05:37:17;16.20;60.70
7077;DHT22;3579;48.956;9.154;2024-03-02T05:39:43;16.30;60.10
7077;DHT22;3579;48.956;9.154;2024-03-02T05:42:10;16.30;60.00
7077;DHT22;3579;48.956;9.154;2024-03-02T05:44:36;16.30;60.00
7077;DHT22;3579;48.956;9.154;2024-03-02T05:47:02;16.30;60.00
7077;DHT22;3579;48.956;9.154;2024-03-02T05:49:29;16.30;60.00
7077;DHT22;3579;48.956;9.154;2024-03-02T05:51:55;16.30;60.00
7077;DHT22;3579;48.956;9.154;2024-03-02T05:54:22;16.30;60.00
7077;DHT22;3579;48.956;9.154;2024-03-02T05:56:48;16.30;60.10
7077;DHT22;3579;48.956;9.154;2024-03-02T05:59:14;16.30;60.00
7077;DHT22;3579;48.956;9.154;2024-03-02T06:01:47;16.30;60.10
7077;DHT22;3579;48.956;9.154;2024-03-02T06:04:14;16.30;60.10
7077;DHT22;3579;48.956;9.154;2024-03-02T06:06:40;16.30;60.10
7077;DHT22;3579;48.956;9.154;2024-03-02T06:09:07;16.30;60.20
7077;DHT22;3579;48.956;9.154;2024-03-02T06:11:42;16.30;60.10
7077;DHT22;3579;48.956;9.154;2024-03-02T06:14:09;16.30;60.10
7077;DHT22;3579;48.956;9.154;2024-03-02T06:16:35;16.20;60.00
7077;DHT22;3579;48.956;9.154;2024-03-02T06:19:01;16.20;60.00
7077;DHT22;3579;48.956;9.154;2024-03-02T06:21:28;16.20;59.90
7077;DHT22;3579;48.956;9.154;2024-03-02T06:23:54;16.20;60.10
7077;DHT22;3579;48.956;9.154;2024-03-02T06:26:20;16.20;59.90
7077;DHT22;3579;48.956;9.154;2024-03-02T06:28:46;16.20;59.90
7077;DHT22;3579;48.956;9.154;2024-03-02T06:31:12;16.20;59.90
7077;DHT22;3579;48.956;9.154;2024-03-02T06:33:38;16.20;59.90
7077;DHT22;3579;48.956;9.154;2024-03-02T06:36:06;16.20;59.90
7077;DHT22;3579;48.956;9.154;2024-03-02T06:38:34;16.20;59.90
7077;DHT22;3579;48.956;9.154;2024-03-02T06:41:00;16.20;59.90
7077;DHT22;3579;48.956;9.154;2024-03-02T06:43:26;16.20;59.90
7077;DHT22;3579;48.956;9.154;2024-03-02T06:45:52;16.20;59.90
7077;DHT22;3579;48.956;9.154;2024-03-02T06:48:19;16.20;59.90
7077;DHT22;3579;48.956;9.154;2024-03-02T06:50:49;16.30;59.90
7077;DHT22;3579;48.956;9.154;2024-03-02T06:53:16;16.30;59.90
7077;DHT22;3579;48.956;9.154;2024-03-02T06:55:46;16.30;59.80
7077;DHT22;3579;48.956;9.154;2024-03-02T06:58:15;16.30;59.70
7077;DHT22;3579;48.956;9.154;2024-03-02T07:00:42;16.40;59.80
7077;DHT22;3579;48.956;9.154;2024-03-02T07:03:08;16.40;59.80
7077;DHT22;3579;48.956;9.154;2024-03-02T07:05:34;16.40;59.80
7077;DHT22;3579;48.956;9.154;2024-03-02T07:08:00;16.40;59.80
7077;DHT22;3579;48.956;9.154;2024-03-02T07:10:27;16.40;59.70
7077;DHT22;3579;48.956;9.154;2024-03-02T07:12:53;16.40;59.70
7077;DHT22;3579;48.956;9.154;2024-03-02T07:15:19;16.40;59.70
7077;DHT22;3579;48.956;9.154;2024-03-02T07:17:54;16.40;59.70
7077;DHT22;3579;48.956;9.154;2024-03-02T07:20:21;16.40;59.70
7077;DHT22;3579;48.956;9.154;2024-03-02T07:22:47;16.50;59.70
7077;DHT22;3579;48.956;9.154;2024-03-02T07:25:13;16.50;59.70
7077;DHT22;3579;48.956;9.154;2024-03-02T07:27:39;16.50;59.70
7077;DHT22;3579;48.956;9.154;2024-03-02T07:30:07;16.50;59.60
7077;DHT22;3579;48.956;9.154;2024-03-02T07:32:33;16.60;59.70
7077;DHT22;3579;48.956;9.154;2024-03-02T07:34:59;16.60;59.60
7077;DHT22;3579;48.956;9.154;2024-03-02T07:37:27;16.60;59.60
7077;DHT22;3579;48.956;9.154;2024-03-02T07:39:53;16.60;59.60
7077;DHT22;3579;48.956;9.154;2024-03-02T07:42:19;16.60;59.60
7077;DHT22;3579;48.956;9.154;2024-03-02T07:44:45;16.60;59.60
7077;DHT22;3579;48.956;9.154;2024-03-02T07:47:11;16.60;59.60
7077;DHT22;3579;48.956;9.154;2024-03-02T07:49:37;16.60;59.60
7077;DHT22;3579;48.956;9.154;2024-03-02T07:52:04;16.60;59.60
7077;DHT22;3579;48.956;9.154;2024-03-02T07:54:30;16.60;59.60
7077;DHT22;3579;48.956;9.154;2024-03-02T07:56:56;16.60;59.60
7077;DHT22;3579;48.956;9.154;2024-03-02T07:59:22;16.60;59.60
7077;DHT22;3579;48.956;9.154;2024-03-02T08:01:49;16.60;59.60
7077;DHT22;3579;48.956;9.154;2024-03-02T08:04:16;16.60;59.50
7077;DHT22;3579;48.956;9.154;2024-03-02T08:06:42;16.70;59.60
7077;DHT22;3579;48.956;9.154;2024-03-02T08:09:08;16.70;59.50
7077;DHT22;3579;48.956;9.154;2024-03-02T08:11:37;16.70;59.50
7077;DHT22;3579;48.956;9.154;2024-03-02T08:14:03;16.70;59.50
7077;DHT22;3579;48.956;9.154;2024-03-02T08:16:29;16.70;59.50
7077;DHT22;3579;48.956;9.154;2024-03-02T08:18:56;16.70;59.40
7077;DHT22;3579;48.956;9.154;2024-03-02T08:21:25;16.70;59.40
7077;DHT22;3579;48.956;9.154;2024-03-02T08:23:51;16.70;59.40
7077;DHT22;3579;48.956;9.154;2024-03-02T08:26:17;16.80;59.50
7077;DHT22;3579;48.956;9.154;2024-03-02T08:28:43;16.80;59.50
7077;DHT22;3579;48.956;9.154;2024-03-02T08:31:10;16.80;59.40
7077;DHT22;3579;48.956;9.154;2024-03-02T08:33:36;16.80;59.40
7077;DHT22;3579;48.956;9.154;2024-03-02T08:36:02;16.80;59.40
7077;DHT22;3579;48.956;9.154;2024-03-02T08:38:29;16.90;59.40
7077;DHT22;3579;48.956;9.154;2024-03-02T08:40:55;16.90;59.40
7077;DHT22;3579;48.956;9.154;2024-03-02T08:43:21;17.00;59.40
7077;DHT22;3579;48.956;9.154;2024-03-02T08:45:48;17.00;59.30
7077;DHT22;3579;48.956;9.154;2024-03-02T08:48:15;17.10;59.30
7077;DHT22;3579;48.956;9.154;2024-03-02T08:50:41;17.20;59.10
7077;DHT22;3579;48.956;9.154;2024-03-02T08:53:07;17.30;59.00
7077;DHT22;3579;48.956;9.154;2024-03-02T08:55:33;17.20;59.10
7077;DHT22;3579;48.956;9.154;2024-03-02T08:57:59;17.30;59.30
7077;DHT22;3579;48.956;9.154;2024-03-02T09:00:25;17.30;59.30
7077;DHT22;3579;48.956;9.154;2024-03-02T09:02:51;17.40;59.30
7077;DHT22;3579;48.956;9.154;2024-03-02T09:05:17;17.40;59.30
7077;DHT22;3579;48.956;9.154;2024-03-02T09:07:43;17.50;59.30
7077;DHT22;3579;48.956;9.154;2024-03-02T09:10:10;17.50;59.30
7077;DHT22;3579;48.956;9.154;2024-03-02T09:12:36;17.60;59.40
7077;DHT22;3579;48.956;9.154;2024-03-02T09:15:03;17.60;59.30
7077;DHT22;3579;48.956;9.154;2024-03-02T09:17:30;17.70;59.30
7077;DHT22;3579;48.956;9.154;2024-03-02T09:19:56;17.70;59.30
7077;DHT22;3579;48.956;9.154;2024-03-02T09:22:22;17.80;59.30
7077;DHT22;3579;48.956;9.154;2024-03-02T09:24:49;17.80;59.30
7077;DHT22;3579;48.956;9.154;2024-03-02T09:27:15;17.80;59.20
7077;DHT22;3579;48.956;9.154;2024-03-02T09:29:41;17.90;59.20
7077;DHT22;3579;48.956;9.154;2024-03-02T09:32:07;17.90;59.20
7077;DHT22;3579;48.956;9.154;2024-03-02T09:34:34;18.00;59.30
7077;DHT22;3579;48.956;9.154;2024-03-02T09:37:00;18.00;59.30
7077;DHT22;3579;48.956;9.154;2024-03-02T09:39:26;18.00;59.80
7077;DHT22;3579;48.956;9.154;2024-03-02T09:41:52;18.10;59.30
7077;DHT22;3579;48.956;9.154;2024-03-02T09:44:19;18.10;59.30
7077;DHT22;3579;48.956;9.154;2024-03-02T09:46:49;18.10;59.20
7077;DHT22;3579;48.956;9.154;2024-03-02T09:49:15;18.20;59.30
7077;DHT22;3579;48.956;9.154;2024-03-02T09:51:47;18.20;59.20
7077;DHT22;3579;48.956;9.154;2024-03-02T09:54:13;18.20;59.20
7077;DHT22;3579;48.956;9.154;2024-03-02T09:56:39;18.30;59.30
7077;DHT22;3579;48.956;9.154;2024-03-02T09:59:05;18.30;59.30
7077;DHT22;3579;48.956;9.154;2024-03-02T10:01:31;18.40;59.30
7077;DHT22;3579;48.956;9.154;2024-03-02T10:04:00;18.40;59.20
7077;DHT22;3579;48.956;9.154;2024-03-02T10:06:28;18.40;59.70
7077;DHT22;3579;48.956;9.154;2024-03-02T10:08:55;18.40;59.10
7077;DHT22;3579;48.956;9.154;2024-03-02T10:11:31;18.50;59.20
7077;DHT22;3579;48.956;9.154;2024-03-02T10:16:31;18.50;59.20
7077;DHT22;3579;48.956;9.154;2024-03-02T10:18:57;18.50;59.20
7077;DHT22;3579;48.956;9.154;2024-03-02T10:21:23;18.60;59.20
7077;DHT22;3579;48.956;9.154;2024-03-02T10:23:51;18.60;59.20
7077;DHT22;3579;48.956;9.154;2024-03-02T10:26:17;18.60;59.20
7077;DHT22;3579;48.956;9.154;2024-03-02T10:28:47;18.60;59.10
7077;DHT22;3579;48.956;9.154;2024-03-02T10:31:18;18.70;59.20
7077;DHT22;3579;48.956;9.154;2024-03-02T10:33:44;18.70;59.20
7077;DHT22;3579;48.956;9.154;2024-03-02T10:36:10;18.70;59.20
7077;DHT22;3579;48.956;9.154;2024-03-02T10:38:36;18.70;59.10
7077;DHT22;3579;48.956;9.154;2024-03-02T10:41:02;18.80;59.10
7077;DHT22;3579;48.956;9.154;2024-03-02T10:43:29;18.80;59.00
7077;DHT22;3579;48.956;9.154;2024-03-02T10:45:57;18.80;59.00
7077;DHT22;3579;48.956;9.154;2024-03-02T10:48:25;18.80;59.00
7077;DHT22;3579;48.956;9.154;2024-03-02T10:50:52;18.80;58.90
7077;DHT22;3579;48.956;9.154;2024-03-02T10:53:19;18.80;58.90
7077;DHT22;3579;48.956;9.154;2024-03-02T10:55:47;18.90;59.00
7077;DHT22;3579;48.956;9.154;2024-03-02T10:58:18;18.90;58.80
7077;DHT22;3579;48.956;9.154;2024-03-02T11:00:46;18.90;58.80
7077;DHT22;3579;48.956;9.154;2024-03-02T11:03:12;18.90;58.80
7077;DHT22;3579;48.956;9.154;2024-03-02T11:05:40;18.90;58.60
7077;DHT22;3579;48.956;9.154;2024-03-02T11:08:17;19.00;58.70
7077;DHT22;3579;48.956;9.154;2024-03-02T11:10:54;19.00;58.60
7077;DHT22;3579;48.956;9.154;2024-03-02T11:13:27;19.00;58.60
7077;DHT22;3579;48.956;9.154;2024-03-02T11:16:01;19.00;58.60
7077;DHT22;3579;48.956;9.154;2024-03-02T11:18:30;19.00;58.60
7077;DHT22;3579;48.956;9.154;2024-03-02T11:20:57;19.00;58.50
7077;DHT22;3579;48.956;9.154;2024-03-02T11:23:33;19.00;58.50
7077;DHT22;3579;48.956;9.154;2024-03-02T11:26:21;19.10;58.60
7077;DHT22;3579;48.956;9.154;2024-03-02T11:28:49;19.00;58.50
7077;DHT22;3579;48.956;9.154;2024-03-02T11:31:15;19.00;58.50
7077;DHT22;3579;48.956;9.154;2024-03-02T11:33:41;19.10;58.50
7077;DHT22;3579;48.956;9.154;2024-03-02T11:36:08;19.10;58.60
7077;DHT22;3579;48.956;9.154;2024-03-02T11:38:35;19.10;58.50
7077;DHT22;3579;48.956;9.154;2024-03-02T11:41:07;19.10;58.60
7077;DHT22;3579;48.956;9.154;2024-03-02T11:43:38;19.10;58.50
7077;DHT22;3579;48.956;9.154;2024-03-02T11:46:06;19.10;58.50
7077;DHT22;3579;48.956;9.154;2024-03-02T11:48:36;19.10;58.50
7077;DHT22;3579;48.956;9.154;2024-03-02T11:51:05;19.10;58.50
7077;DHT22;3579;48.956;9.154;2024-03-02T11:53:31;19.10;58.40
7077;DHT22;3579;48.956;9.154;2024-03-02T11:55:59;19.10;58.40
7077;DHT22;3579;48.956;9.154;2024-03-02T11:58:25;19.10;58.40
7077;DHT22;3579;48.956;9.154;2024-03-02T12:00:56;19.10;58.40
7077;DHT22;3579;48.956;9.154;2024-03-02T12:03:23;19.20;58.40
7077;DHT22;3579;48.956;9.154;2024-03-02T12:05:54;19.20;58.30
7077;DHT22;3579;48.956;9.154;2024-03-02T12:08:21;19.10;58.30
7077;DHT22;3579;48.956;9.154;2024-03-02T12:11:01;19.20;58.30
7077;DHT22;3579;48.956;9.154;2024-03-02T12:13:27;19.10;58.20
7077;DHT22;3579;48.956;9.154;2024-03-02T12:15:54;19.20;58.20
7077;DHT22;3579;48.956;9.154;2024-03-02T12:18:21;19.20;58.70
7077;DHT22;3579;48.956;9.154;2024-03-02T12:20:49;19.20;58.20
7077;DHT22;3579;48.956;9.154;2024-03-02T12:23:18;19.20;58.10
7077;DHT22;3579;48.956;9.154;2024-03-02T12:25:45;19.20;58.10
7077;DHT22;3579;48.956;9.154;2024-03-02T12:28:11;19.20;58.60
7077;DHT22;3579;48.956;9.154;2024-03-02T12:30:37;19.20;58.00
7077;DHT22;3579;48.956;9.154;2024-03-02T12:33:04;19.20;58.00
7077;DHT22;3579;48.956;9.154;2024-03-02T12:35:30;19.20;58.00
7077;DHT22;3579;48.956;9.154;2024-03-02T12:37:57;19.20;58.00
7077;DHT22;3579;48.956;9.154;2024-03-02T12:40:24;19.20;58.00
7077;DHT22;3579;48.956;9.154;2024-03-02T12:42:50;19.20;58.00
7077;DHT22;3579;48.956;9.154;2024-03-02T12:45:16;19.20;58.00
7077;DHT22;3579;48.956;9.154;2024-03-02T12:47:49;19.20;58.00
7077;DHT22;3579;48.956;9.154;2024-03-02T12:50:17;19.20;58.00
7077;DHT22;3579;48.956;9.154;2024-03-02T12:52:43;19.20;58.00
7077;DHT22;3579;48.956;9.154;2024-03-02T12:55:09;19.20;57.90
7077;DHT22;3579;48.956;9.154;2024-03-02T12:57:35;19.20;57.90
7077;DHT22;3579;48.956;9.154;2024-03-02T13:00:04;19.20;58.00
7077;DHT22;3579;48.956;9.154;2024-03-02T13:02:36;19.20;58.00
7077;DHT22;3579;48.956;9.154;2024-03-02T13:05:02;19.20;58.00
7077;DHT22;3579;48.956;9.154;2024-03-02T13:07:29;19.20;58.00
7077;DHT22;3579;48.956;9.154;2024-03-02T13:09:55;19.20;58.00
7077;DHT22;3579;48.956;9.154;2024-03-02T13:12:25;19.20;58.00
7077;DHT22;3579;48.956;9.154;2024-03-02T13:14:54;19.10;57.90
7077;DHT22;3579;48.956;9.154;2024-03-02T13:17:20;19.20;58.00
7077;DHT22;3579;48.956;9.154;2024-03-02T13:19:55;19.20;58.00
7077;DHT22;3579;48.956;9.154;2024-03-02T13:22:21;19.10;57.90
7077;DHT22;3579;48.956;9.154;2024-03-02T13:24:48;19.20;58.00
7077;DHT22;3579;48.956;9.154;2024-03-02T13:27:14;19.10;57.80
7077;DHT22;3579;48.956;9.154;2024-03-02T13:29:40;19.10;57.90
7077;DHT22;3579;48.956;9.154;2024-03-02T13:32:06;19.10;57.90
7077;DHT22;3579;48.956;9.154;2024-03-02T13:34:32;19.10;57.80
7077;DHT22;3579;48.956;9.154;2024-03-02T13:36:58;19.20;58.00
7077;DHT22;3579;48.956;9.154;2024-03-02T13:39:27;19.10;57.80
7077;DHT22;3579;48.956;9.154;2024-03-02T13:41:53;19.10;57.90
7077;DHT22;3579;48.956;9.154;2024-03-02T13:44:27;19.10;57.90
7077;DHT22;3579;48.956;9.154;2024-03-02T13:46:53;19.10;57.90
7077;DHT22;3579;48.956;9.154;2024-03-02T13:49:19;19.10;57.90
7077;DHT22;3579;48.956;9.154;2024-03-02T13:51:45;19.10;57.90
7077;DHT22;3579;48.956;9.154;2024-03-02T13:54:11;19.10;57.90
7077;DHT22;3579;48.956;9.154;2024-03-02T13:56:37;19.10;57.90
7077;DHT22;3579;48.956;9.154;2024-03-02T13:59:05;19.10;57.90
7077;DHT22;3579;48.956;9.154;2024-03-02T14:01:31;19.10;57.90
7077;DHT22;3579;48.956;9.154;2024-03-02T14:03:58;19.10;57.90
7077;DHT22;3579;48.956;9.154;2024-03-02T14:06:25;19.10;58.00
7077;DHT22;3579;48.956;9.154;2024-03-02T14:08:53;19.10;58.00
7077;DHT22;3579;48.956;9.154;2024-03-02T14:11:19;19.10;58.00
7077;DHT22;3579;48.956;9.154;2024-03-02T14:13:45;18.50;57.50
7077;DHT22;3579;48.956;9.154;2024-03-02T14:16:15;19.10;57.90
7077;DHT22;3579;48.956;9.154;2024-03-02T14:18:41;19.10;57.90
7077;DHT22;3579;48.956;9.154;2024-03-02T14:21:08;19.10;57.90
7077;DHT22;3579;48.956;9.154;2024-03-02T14:23:34;19.10;57.90
7077;DHT22;3579;48.956;9.154;2024-03-02T14:26:00;19.10;57.90
7077;DHT22;3579;48.956;9.154;2024-03-02T14:28:26;19.10;57.90
7077;DHT22;3579;48.956;9.154;2024-03-02T14:30:52;19.10;57.90
7077;DHT22;3579;48.956;9.154;2024-03-02T14:33:18;19.10;57.90
7077;DHT22;3579;48.956;9.154;2024-03-02T14:35:45;19.00;57.90
7077;DHT22;3579;48.956;9.154;2024-03-02T14:38:12;19.10;58.00
7077;DHT22;3579;48.956;9.154;2024-03-02T14:40:38;19.00;57.90
7077;DHT22;3579;48.956;9.154;2024-03-02T14:43:04;19.00;57.90
7077;DHT22;3579;48.956;9.154;2024-03-02T14:45:30;19.00;57.90
7077;DHT22;3579;48.956;9.154;2024-03-02T14:47:57;19.00;57.90
7077;DHT22;3579;48.956;9.154;2024-03-02T14:50:28;19.00;57.90
7077;DHT22;3579;48.956;9.154;2024-03-02T14:52:54;19.00;57.90
7077;DHT22;3579;48.956;9.154;2024-03-02T14:55:23;19.00;57.90
7077;DHT22;3579;48.956;9.154;2024-03-02T14:57:50;19.00;58.00
7077;DHT22;3579;48.956;9.154;2024-03-02T15:00:16;19.00;58.00
7077;DHT22;3579;48.956;9.154;2024-03-02T15:02:42;19.00;58.00
7077;DHT22;3579;48.956;9.154;2024-03-02T15:05:09;19.00;57.90
7077;DHT22;3579;48.956;9.154;2024-03-02T15:07:35;19.00;58.00
7077;DHT22;3579;48.956;9.154;2024-03-02T15:10:01;19.00;58.00
7077;DHT22;3579;48.956;9.154;2024-03-02T15:12:27;19.00;58.00
7077;DHT22;3579;48.956;9.154;2024-03-02T15:14:54;19.00;58.00
7077;DHT22;3579;48.956;9.154;2024-03-02T15:17:20;19.00;58.00
7077;DHT22;3579;48.956;9.154;2024-03-02T15:19:46;19.00;58.00
7077;DHT22;3579;48.956;9.154;2024-03-02T15:22:12;19.00;58.00
7077;DHT22;3579;48.956;9.154;2024-03-02T15:24:39;19.00;58.00
7077;DHT22;3579;48.956;9.154;2024-03-02T15:27:05;19.00;58.00
7077;DHT22;3579;48.956;9.154;2024-03-02T15:29:34;18.90;58.00
7077;DHT22;3579;48.956;9.154;2024-03-02T15:32:00;18.90;58.00
7077;DHT22;3579;48.956;9.154;2024-03-02T15:34:27;18.90;58.00
7077;DHT22;3579;48.956;9.154;2024-03-02T15:36:53;18.90;58.10
7077;DHT22;3579;48.956;9.154;2024-03-02T15:39:19;18.90;58.10
7077;DHT22;3579;48.956;9.154;2024-03-02T15:41:45;18.90;58.10
7077;DHT22;3579;48.956;9.154;2024-03-02T15:44:11;18.80;58.00
7077;DHT22;3579;48.956;9.154;2024-03-02T15:46:37;18.90;58.10
7077;DHT22;3579;48.956;9.154;2024-03-02T15:49:04;18.80;58.10
7077;DHT22;3579;48.956;9.154;2024-03-02T15:51:32;18.80;58.10
7077;DHT22;3579;48.956;9.154;2024-03-02T15:54:10;18.80;58.10
7077;DHT22;3579;48.956;9.154;2024-03-02T15:56:36;18.80;58.10
7077;DHT22;3579;48.956;9.154;2024-03-02T15:59:03;18.80;58.20
7077;DHT22;3579;48.956;9.154;2024-03-02T16:01:33;18.80;58.10
7077;DHT22;3579;48.956;9.154;2024-03-02T16:03:59;18.80;58.20
7077;DHT22;3579;48.956;9.154;2024-03-02T16:06:25;18.80;58.20
7077;DHT22;3579;48.956;9.154;2024-03-02T16:08:51;18.80;58.20
7077;DHT22;3579;48.956;9.154;2024-03-02T16:11:19;18.80;58.20